Time;durP1;ratioP1;P1;durP2;ratioP2;P2;SDS_P1;SDS_P2;PMS_P1;PMS_P2;Temp;Humidity;BMP_temperature;BMP_pressure;BME280_temperature;BME280_humidity;BME280_pressure;Samples;Min_cycle;Max_cycle;Signal;HPM_P1;HPM_P2
2023/09/18 06:25:38;;;;;;;;;;;;;;;;;;;;;
2023/09/18 06:48:35;;;;;;;19.53;13.93;;;18.80;99.90;;;;;;5502041;24;20283;-77
2023/09/18 06:51:30;;;;;;;20.37;13.30;;;18.90;99.90;;;;;;4771716;29;20664;-81
2023/09/18 06:54:16;;;;;;;31.87;16.17;;;19.00;99.90;;;;;;4784731;30;20235;-80
2023/09/18 06:56:47;;;;;;;20.47;13.53;;;19.10;99.90;;;;;;4788146;30;20204;-80
2023/09/18 06:59:16;;;;;;;21.53;13.30;;;19.20;99.90;;;;;;4788158;30;20193;-82
2023/09/18 07:01:50;;;;;;;20.47;14.07;;;19.30;99.90;;;;;;4788823;30;20216;-81
2023/09/18 07:04:27;;;;;;;19.33;13.50;;;19.40;99.90;;;;;;4788432;30;20249;-84
2023/09/18 07:07:08;;;;;;;16.77;12.57;;;19.40;99.90;;;;;;4787881;29;20219;-83
2023/09/18 07:09:40;;;;;;;17.93;12.97;;;19.60;99.90;;;;;;4788283;30;20610;-84
2023/09/18 07:13:14;;;;;;;;;;;;;;;;;;;;;
2023/09/18 07:16:23;;;;;;;17.93;12.70;;;19.80;99.90;;;;;;4788904;30;20177;-86
2023/09/18 07:18:56;;;;;;;16.93;12.97;;;19.80;99.90;;;;;;4787831;30;20192;-84
2023/09/18 07:21:55;;;;;;;18.63;12.63;;;20.00;99.90;;;;;;4784906;29;20281;-83
2023/09/18 07:24:33;;;;;;;18.37;12.70;;;20.10;99.90;;;;;;4787809;30;20228;-80
2023/09/18 07:27:04;;;;;;;17.23;12.17;;;20.20;99.90;;;;;;4787466;30;20201;-80
2023/09/18 07:29:34;;;;;;;22.53;12.63;;;20.40;99.90;;;;;;4788132;30;20211;-82
2023/09/18 07:32:42;;;;;;;17.07;12.30;;;20.50;99.90;;;;;;4787827;30;20197;-86
2023/09/18 07:35:16;;;;;;;18.00;12.20;;;20.70;99.90;;;;;;4787768;29;20564;-83
2023/09/18 07:37:46;;;;;;;16.37;12.30;;;20.80;99.90;;;;;;4786771;30;20211;-83
2023/09/18 07:40:18;;;;;;;17.67;12.47;;;20.90;99.90;;;;;;4787463;30;20668;-82
2023/09/18 07:42:53;;;;;;;16.03;12.43;;;20.90;99.90;;;;;;4787354;30;20200;-82
2023/09/18 07:45:24;;;;;;;23.53;13.27;;;21.00;99.90;;;;;;4772660;30;20204;-82
2023/09/18 07:47:55;;;;;;;15.53;11.93;;;21.20;99.90;;;;;;4786759;30;20291;-82
2023/09/18 07:50:23;;;;;;;17.43;11.87;;;21.30;99.90;;;;;;4787290;29;20232;-82
2023/09/18 07:52:55;;;;;;;16.33;11.63;;;21.40;99.90;;;;;;4787616;30;20196;-81
2023/09/18 07:55:24;;;;;;;16.47;12.00;;;21.50;99.90;;;;;;4787623;29;20683;-82
2023/09/18 07:58:51;;;;;;;15.80;11.53;;;21.60;99.90;;;;;;4786277;30;20200;-85
2023/09/18 08:01:24;;;;;;;30.03;14.27;;;21.80;99.90;;;;;;4718825;30;20502;-82
2023/09/18 08:03:53;;;;;;;28.77;13.30;;;21.90;99.90;;;;;;4733397;30;20210;-80
2023/09/18 08:06:21;;;;;;;18.77;12.03;;;22.00;99.90;;;;;;4733554;30;20234;-79
2023/09/18 08:08:50;;;;;;;16.63;11.97;;;22.20;99.90;;;;;;4732929;30;20206;-83
2023/09/18 08:11:19;;;;;;;14.93;11.40;;;22.30;99.90;;;;;;4732439;30;20226;-85
2023/09/18 08:14:21;;;;;;;;;;;;;;;;;;;;;
2023/09/18 08:17:12;;;;;;;16.37;11.50;;;22.60;99.90;;;;;;4733021;30;20226;-82
2023/09/18 08:19:58;;;;;;;14.33;11.20;;;23.40;99.90;;;;;;4732274;30;20305;-81
2023/09/18 08:26:13;;;;;;;20.45;11.32;;;25.10;99.90;;;;;;4698137;30;20318;-82
2023/09/18 08:28:43;;;;;;;25.65;11.82;;;25.80;99.90;;;;;;4697710;30;20211;-80
2023/09/18 08:31:34;;;;;;;14.77;10.98;;;26.20;99.90;;;;;;4702054;30;20325;-81
2023/09/18 08:34:19;;;;;;;19.00;11.35;;;26.70;99.90;;;;;;4714806;30;20211;-82
2023/09/18 08:37:45;;;;;;;15.63;10.45;;;27.10;99.90;;;;;;4714150;30;20227;-82
2023/09/18 08:40:18;;;;;;;12.23;9.70;;;27.30;99.90;;;;;;4715579;30;20235;-86
2023/09/18 08:42:53;;;;;;;17.58;10.60;;;27.70;99.90;;;;;;4715080;30;20214;-85
2023/09/18 08:46:04;;;;;;;15.10;9.60;;;28.10;99.90;;;;;;4713096;30;20219;-80
2023/09/18 08:48:37;;;;;;;11.07;9.40;;;28.40;99.90;;;;;;4714194;30;20238;-82
2023/09/18 08:51:08;;;;;;;11.50;9.57;;;28.20;99.90;;;;;;4715013;30;20242;-82
2023/09/18 08:53:49;;;;;;;13.48;9.15;;;28.40;99.90;;;;;;4714640;30;20215;-82
2023/09/18 08:56:46;;;;;;;13.88;9.63;;;28.30;99.90;;;;;;4722412;30;20295;-82
2023/09/18 09:00:01;;;;;;;;;;;;;;;;;;;;;
2023/09/18 09:02:39;;;;;;;18.60;10.05;;;29.00;99.90;;;;;;4757003;30;20240;-83
2023/09/18 09:05:10;;;;;;;11.82;9.82;;;29.30;99.90;;;;;;4787102;29;20203;-80
2023/09/18 09:07:38;;;;;;;11.05;9.13;;;29.50;99.90;;;;;;4787579;30;20200;-79
2023/09/18 09:10:07;;;;;;;13.27;9.48;;;29.60;99.90;;;;;;4801427;29;20671;-82
2023/09/18 09:12:58;;;;;;;11.32;8.70;;;29.80;99.90;;;;;;4787492;30;20199;-79
2023/09/18 09:15:34;;;;;;;11.52;8.48;;;30.20;99.90;;;;;;4771434;30;20230;-83
2023/09/18 09:18:08;;;;;;;9.38;8.38;;;30.30;99.90;;;;;;4787089;30;20699;-84
2023/09/18 09:20:40;;;;;;;9.57;8.30;;;30.40;99.90;;;;;;4787247;29;20757;-83
2023/09/18 09:23:12;;;;;;;10.32;8.70;;;30.80;99.90;;;;;;4786353;30;20242;-80
2023/09/18 09:25:41;;;;;;;11.65;9.13;;;30.90;99.90;;;;;;4786103;30;20212;-76
2023/09/18 09:28:09;;;;;;;9.80;8.30;;;31.10;99.90;;;;;;4786484;30;20291;-82
2023/09/18 09:30:37;;;;;;;17.17;8.20;;;31.20;99.90;;;;;;4800329;29;20243;-84
2023/09/18 09:33:07;;;;;;;11.15;6.97;;;31.20;99.90;;;;;;4787223;30;20324;-80
2023/09/18 09:35:40;;;;;;;8.18;6.38;;;31.30;99.90;;;;;;4771450;30;20224;-81
2023/09/18 09:38:15;;;;;;;10.38;6.32;;;31.60;99.90;;;;;;4784913;30;20224;-79
2023/09/18 09:40:45;;;;;;;8.63;6.55;;;31.60;99.90;;;;;;4800849;29;20211;-80
2023/09/18 09:43:20;;;;;;;10.30;6.57;;;31.70;99.90;;;;;;4787134;30;20543;-80
2023/09/18 09:45:48;;;;;;;8.95;5.95;;;32.00;99.90;;;;;;4786815;30;20301;-82
2023/09/18 09:48:15;;;;;;;12.38;6.60;;;32.20;99.90;;;;;;4786570;30;20696;-81
2023/09/18 09:50:47;;;;;;;6.82;6.07;;;32.30;99.90;;;;;;4785710;29;20231;-83
2023/09/18 09:53:20;;;;;;;11.95;6.20;;;32.30;99.90;;;;;;4770137;30;20741;-81
2023/09/18 09:55:59;;;;;;;6.18;5.38;;;32.30;99.90;;;;;;4786554;30;20667;-82
2023/09/18 09:58:43;;;;;;;7.03;5.15;;;32.20;99.90;;;;;;4771291;30;20655;-82
2023/09/18 10:01:17;;;;;;;11.32;5.80;;;32.60;99.90;;;;;;4785143;30;20260;-83
2023/09/18 10:03:48;;;;;;;7.10;4.97;;;32.10;99.90;;;;;;4786787;30;20645;-82
2023/09/18 10:06:21;;;;;;;6.60;5.00;;;32.60;99.90;;;;;;4786190;29;20222;-84
2023/09/18 10:08:53;;;;;;;6.30;4.20;;;32.90;99.90;;;;;;4783958;30;20208;-79
2023/09/18 10:11:23;;;;;;;6.78;4.68;;;33.20;99.90;;;;;;4785172;30;20232;-77
2023/09/18 10:14:03;;;;;;;6.57;4.65;;;33.30;99.90;;;;;;4786319;30;20667;-84
2023/09/18 10:16:57;;;;;;;7.75;4.88;;;33.10;99.90;;;;;;4786084;30;20287;-81
2023/09/18 10:19:48;;;;;;;5.03;4.53;;;32.80;99.90;;;;;;4784857;30;20283;-80
2023/09/18 10:22:38;;;;;;;6.32;4.72;;;32.60;99.90;;;;;;4784200;29;20228;-81
2023/09/18 10:25:19;;;;;;;5.80;4.68;;;32.80;99.90;;;;;;4785749;30;20189;-80
2023/09/18 10:31:31;;;;;;;5.57;4.47;;;33.00;99.30;;;;;;4744823;30;20493;-83
2023/09/18 10:34:02;;;;;;;5.78;4.47;;;33.30;98.30;;;;;;4748692;30;20289;-88
2023/09/18 10:45:38;;;;;;;8.55;4.80;;;34.10;95.80;;;;;;4787872;29;20236;-81
2023/09/18 10:48:14;;;;;;;9.07;4.90;;;33.90;95.90;;;;;;4804240;29;20648;-88
2023/09/18 10:50:48;;;;;;;8.48;4.75;;;34.40;95.40;;;;;;4793403;29;20297;-81
2023/09/18 10:53:29;;;;;;;9.40;4.82;;;34.60;95.40;;;;;;4808005;29;20222;-86
2023/09/18 10:55:58;;;;;;;4.60;4.20;;;34.20;94.50;;;;;;4807587;29;20203;-88
2023/09/18 10:58:35;;;;;;;7.32;4.68;;;33.90;92.60;;;;;;4778101;29;20778;-88
2023/09/18 11:07:26;;;;;;;4.93;4.43;;;34.00;93.50;;;;;;4788864;29;20236;-83
2023/09/18 11:10:37;;;;;;;7.30;4.47;;;34.00;92.60;;;;;;4787040;30;20196;-83
2023/09/18 11:14:04;;;;;;;6.15;4.88;;;34.50;92.40;;;;;;4729555;30;20213;-82
2023/09/18 11:17:43;;;;;;;10.95;4.80;;;34.80;90.70;;;;;;4734225;30;20309;-83
2023/09/18 11:20:24;;;;;;;6.05;4.38;;;35.30;90.70;;;;;;4698245;30;20565;-83
2023/09/18 11:23:14;;;;;;;10.55;5.70;;;35.40;89.20;;;;;;4684295;30;20215;-81
2023/09/18 11:25:53;;;;;;;6.20;5.05;;;35.30;87.00;;;;;;4698917;30;20236;-78
2023/09/18 11:28:25;;;;;;;5.65;4.63;;;35.90;86.50;;;;;;4683909;30;20207;-79
2023/09/18 11:30:58;;;;;;;5.80;4.95;;;36.80;83.60;;;;;;4684634;30;20242;-79
2023/09/18 11:33:40;;;;;;;5.18;4.45;;;37.00;82.80;;;;;;4684030;30;20255;-79
2023/09/18 11:36:12;;;;;;;5.53;4.60;;;36.50;81.50;;;;;;4683920;30;20239;-80
2023/09/18 11:38:56;;;;;;;8.27;4.82;;;36.30;83.00;;;;;;4684151;30;20671;-77
2023/09/18 11:41:27;;;;;;;6.88;4.60;;;36.20;81.90;;;;;;4698515;30;20304;-79
2023/09/18 11:44:18;;;;;;;7.00;4.93;;;36.70;81.80;;;;;;4697883;30;20215;-80
2023/09/18 11:46:51;;;;;;;8.25;4.85;;;37.80;78.70;;;;;;4684041;30;20215;-78
2023/09/18 11:49:26;;;;;;;6.35;4.65;;;38.00;78.10;;;;;;4698030;30;20242;-79
2023/09/18 11:51:58;;;;;;;6.20;4.43;;;38.50;76.80;;;;;;4697867;30;20262;-81
2023/09/18 11:54:31;;;;;;;7.32;4.60;;;38.70;74.70;;;;;;4697696;30;20212;-80
2023/09/18 11:57:07;;;;;;;5.57;4.50;;;38.80;72.80;;;;;;4752009;30;20329;-77
2023/09/18 11:59:42;;;;;;;4.68;4.18;;;38.80;73.00;;;;;;4772676;29;20332;-79
2023/09/18 12:02:34;;;;;;;5.22;4.50;;;38.60;72.40;;;;;;4804768;29;20288;-77
2023/09/18 12:05:11;;;;;;;6.22;4.60;;;38.50;72.70;;;;;;4806383;29;20208;-80
2023/09/18 12:07:43;;;;;;;7.55;5.05;;;37.50;72.90;;;;;;4805455;29;20202;-77
2023/09/18 12:10:20;;;;;;;5.53;4.80;;;36.90;76.20;;;;;;4805254;29;20206;-78
2023/09/18 12:12:48;;;;;;;6.07;5.15;;;36.50;76.30;;;;;;4804708;29;20280;-78
2023/09/18 12:15:25;;;;;;;7.50;5.60;;;36.70;76.60;;;;;;4805000;29;20204;-79
2023/09/18 12:17:55;;;;;;;5.72;4.60;;;37.00;75.20;;;;;;4806012;29;20203;-80
2023/09/18 12:20:26;;;;;;;6.95;5.13;;;37.00;74.30;;;;;;4790531;29;20716;-80
2023/09/18 12:22:56;;;;;;;10.73;5.80;;;37.10;74.90;;;;;;4805789;29;20661;-78
2023/09/18 12:25:24;;;;;;;7.47;5.20;;;37.80;73.90;;;;;;4806121;29;20234;-78
2023/09/18 12:27:55;;;;;;;8.25;5.13;;;38.20;74.00;;;;;;4805721;29;20204;-78
2023/09/18 12:30:23;;;;;;;5.32;4.57;;;38.70;71.60;;;;;;4804510;29;20260;-79
2023/09/18 12:32:57;;;;;;;5.75;5.25;;;38.70;70.90;;;;;;4806019;29;20219;-77
2023/09/18 12:35:29;;;;;;;5.70;5.13;;;37.50;71.40;;;;;;4804184;29;21529;-77
2023/09/18 12:38:04;;;;;;;6.22;5.20;;;36.20;73.40;;;;;;4804358;29;20227;-78
2023/09/18 12:40:40;;;;;;;7.95;5.60;;;35.00;75.90;;;;;;4804603;29;20216;-78
2023/09/18 12:43:08;;;;;;;7.53;5.55;;;34.70;78.40;;;;;;4805224;29;20207;-80
2023/09/18 12:45:35;;;;;;;6.10;5.38;;;34.80;78.40;;;;;;4805242;29;20560;-80
2023/09/18 12:48:03;;;;;;;6.57;5.68;;;34.90;79.30;;;;;;4803992;29;20278;-77
2023/09/18 12:50:31;;;;;;;6.57;5.50;;;35.20;78.90;;;;;;4805070;29;20572;-76
2023/09/18 12:53:13;;;;;;;8.82;5.85;;;34.90;77.90;;;;;;4804325;29;20230;-80
2023/09/18 12:55:42;;;;;;;6.32;5.70;;;33.90;79.60;;;;;;4805197;29;20203;-80
2023/09/18 12:58:13;;;;;;;9.45;5.88;;;33.20;81.90;;;;;;4804124;29;20231;-79
2023/09/18 13:00:51;;;;;;;10.10;6.03;;;33.00;83.00;;;;;;4805128;29;20694;-81
2023/09/18 13:03:24;;;;;;;11.23;6.70;;;33.00;84.10;;;;;;4803995;29;20216;-81
2023/09/18 13:05:54;;;;;;;8.05;5.90;;;32.70;83.90;;;;;;4804809;29;20246;-79
2023/09/18 13:08:23;;;;;;;7.53;6.40;;;32.10;85.90;;;;;;4804614;29;20227;-79
2023/09/18 13:10:51;;;;;;;7.57;6.80;;;32.00;86.10;;;;;;4804239;29;20204;-79
2023/09/18 13:13:22;;;;;;;8.27;6.47;;;31.70;86.30;;;;;;4804810;29;20313;-79
2023/09/18 13:15:50;;;;;;;9.07;6.97;;;31.00;86.90;;;;;;4805164;29;20235;-77
2023/09/18 13:18:23;;;;;;;8.25;6.65;;;30.70;88.90;;;;;;4804291;29;20230;-78
2023/09/18 13:20:53;;;;;;;7.93;6.25;;;30.40;89.60;;;;;;4803733;29;20232;-79
2023/09/18 13:23:27;;;;;;;9.88;7.20;;;30.20;90.30;;;;;;4805607;29;20195;-80
2023/09/18 13:25:59;;;;;;;12.20;7.40;;;30.20;90.50;;;;;;4803733;29;20207;-78
2023/09/18 13:28:26;;;;;;;16.42;10.13;;;29.80;91.10;;;;;;4804499;29;20187;-79
2023/09/18 13:30:54;;;;;;;11.73;7.07;;;29.40;90.80;;;;;;4804916;29;20223;-79
2023/09/18 13:33:23;;;;;;;8.65;7.35;;;29.10;91.00;;;;;;4804046;29;20235;-80
2023/09/18 13:35:55;;;;;;;11.30;7.05;;;28.90;91.40;;;;;;4804931;29;20672;-80
2023/09/18 13:38:23;;;;;;;10.25;7.30;;;28.90;91.80;;;;;;4803523;29;20188;-78
2023/09/18 13:40:56;;;;;;;10.85;7.20;;;28.90;92.10;;;;;;4803902;29;20288;-78
2023/09/18 13:43:24;;;;;;;8.70;7.15;;;28.90;92.00;;;;;;4788983;29;20203;-79
2023/09/18 13:45:52;;;;;;;9.23;7.10;;;29.00;91.90;;;;;;4804614;29;20207;-78
2023/09/18 13:48:20;;;;;;;8.32;6.53;;;28.90;92.00;;;;;;4803604;29;20586;-79
2023/09/18 13:50:48;;;;;;;16.73;8.23;;;28.70;91.90;;;;;;4804561;29;20240;-79
2023/09/18 13:53:16;;;;;;;10.15;6.70;;;28.50;92.50;;;;;;4804894;29;20283;-81
2023/09/18 13:55:43;;;;;;;8.77;6.65;;;28.30;92.70;;;;;;4804764;29;20270;-77
2023/09/18 13:58:11;;;;;;;8.35;6.70;;;28.20;92.90;;;;;;4805024;29;20595;-78
2023/09/18 14:00:38;;;;;;;11.50;7.13;;;28.10;93.30;;;;;;4803618;29;20204;-79
2023/09/18 14:03:11;;;;;;;7.32;6.25;;;28.20;93.30;;;;;;4788641;29;20204;-79
2023/09/18 14:05:39;;;;;;;10.57;6.43;;;28.20;93.30;;;;;;4804926;29;20257;-77
2023/09/18 14:08:07;;;;;;;11.10;6.80;;;28.20;93.60;;;;;;4803866;29;20290;-78
2023/09/18 14:10:34;;;;;;;8.85;6.40;;;28.20;93.80;;;;;;4803807;29;20595;-78
2023/09/18 14:13:02;;;;;;;8.75;6.32;;;28.10;93.80;;;;;;4803855;29;20629;-77
2023/09/18 14:15:30;;;;;;;10.00;6.70;;;28.00;93.50;;;;;;4803204;29;20253;-80
2023/09/18 14:17:57;;;;;;;7.95;6.22;;;27.90;93.80;;;;;;4805493;29;20295;-78
2023/09/18 14:20:25;;;;;;;8.95;6.93;;;27.80;94.20;;;;;;4808331;29;20214;-78
2023/09/18 14:22:53;;;;;;;9.25;6.70;;;27.80;94.50;;;;;;4808116;29;20229;-79
2023/09/18 14:25:22;;;;;;;16.00;7.75;;;27.80;94.60;;;;;;4806894;29;20281;-77
2023/09/18 14:27:53;;;;;;;9.48;6.60;;;27.80;95.30;;;;;;4807387;29;20243;-81
2023/09/18 14:30:21;;;;;;;10.00;6.53;;;27.90;94.90;;;;;;4806462;29;20218;-79
2023/09/18 14:32:49;;;;;;;9.25;6.50;;;27.90;94.60;;;;;;4807061;29;20695;-77
2023/09/18 14:35:18;;;;;;;10.60;6.72;;;27.90;94.30;;;;;;4807931;29;20204;-78
2023/09/18 14:37:47;;;;;;;7.78;6.63;;;27.80;94.20;;;;;;4808589;29;20238;-79
2023/09/18 14:40:14;;;;;;;11.18;7.10;;;27.70;94.50;;;;;;4806433;29;20287;-78
2023/09/18 14:42:42;;;;;;;11.20;6.40;;;27.70;94.80;;;;;;4806392;29;20207;-78
2023/09/18 14:45:12;;;;;;;8.70;6.60;;;27.60;94.60;;;;;;4807202;29;20204;-79
2023/09/18 14:47:40;;;;;;;8.35;6.75;;;27.70;94.40;;;;;;4805197;29;20211;-78
2023/09/18 14:50:08;;;;;;;8.40;6.63;;;27.60;94.40;;;;;;4806271;29;20301;-78
2023/09/18 14:52:38;;;;;;;8.98;7.20;;;27.60;94.90;;;;;;4806365;29;20246;-78
2023/09/18 14:55:23;;;;;;;13.98;7.90;;;27.50;94.90;;;;;;4805087;29;20584;-82
2023/09/18 14:58:21;;;;;;;13.55;7.50;;;27.40;95.20;;;;;;4798872;29;20430;-82
2023/09/18 15:33:22;;;;;;;;;;;;;;;;;;;;;
2023/09/18 16:46:23;;;;;;;16.73;10.68;;;24.80;99.90;;;;;;4804241;29;20617;-79
2023/09/18 16:57:16;;;;;;;;;;;;;;;;;;;;;
2023/09/18 17:02:13;;;;;;;;;;;;;;;;;;;;;
2023/09/18 17:13:11;;;;;;;17.45;10.98;;;24.00;99.90;;;;;;4128411;27;20243;-82
2023/09/18 17:16:20;;;;;;;16.55;10.50;;;23.90;99.90;;;;;;4787925;29;20541;-81
2023/09/18 17:20:04;;;;;;;14.27;10.35;;;23.80;99.90;;;;;;4791243;29;20206;-81
2023/09/18 17:23:23;;;;;;;17.67;10.95;;;23.70;99.90;;;;;;4729898;30;20220;-86
2023/09/18 17:27:39;;;;;;;15.02;11.00;;;23.80;99.90;;;;;;4688452;30;20339;-83
2023/09/18 17:43:24;;;;;;;14.37;10.97;;;23.30;99.90;;;;;;5724014;24;20215;-80
2023/09/18 17:45:52;;;;;;;16.37;11.20;;;23.20;99.90;;;;;;4785674;30;20232;-78
2023/09/18 17:48:21;;;;;;;15.60;11.23;;;23.20;99.90;;;;;;4786123;30;20236;-78
2023/09/18 17:50:48;;;;;;;15.63;11.30;;;23.20;99.90;;;;;;4786102;29;20220;-79
2023/09/18 17:53:17;;;;;;;16.83;10.68;;;23.10;99.90;;;;;;4785164;30;20228;-79
2023/09/18 17:55:44;;;;;;;15.73;11.20;;;23.10;99.90;;;;;;4785926;30;20209;-78
2023/09/18 17:58:12;;;;;;;18.30;11.40;;;23.00;99.90;;;;;;4786297;30;20200;-77
2023/09/18 18:00:44;;;;;;;17.13;11.07;;;22.90;99.90;;;;;;4785335;30;20579;-78
2023/09/18 18:03:17;;;;;;;19.57;11.80;;;22.90;99.90;;;;;;4786066;30;20204;-77
2023/09/18 18:05:49;;;;;;;15.73;11.43;;;22.80;99.90;;;;;;4785526;29;20230;-79
2023/09/18 18:08:18;;;;;;;16.23;11.27;;;22.80;99.90;;;;;;4798704;29;20208;-78
2023/09/18 18:10:49;;;;;;;18.27;11.87;;;22.70;99.90;;;;;;4785920;29;20212;-79
2023/09/18 18:13:19;;;;;;;16.40;11.27;;;22.70;99.90;;;;;;4785780;29;20311;-78
2023/09/18 18:15:50;;;;;;;16.77;11.53;;;22.70;99.90;;;;;;4799534;29;20196;-80
2023/09/18 18:18:21;;;;;;;22.73;12.20;;;22.70;99.90;;;;;;4803586;29;20678;-78
2023/09/18 18:20:49;;;;;;;17.10;11.90;;;22.60;99.90;;;;;;4803513;29;20242;-78
2023/09/18 18:23:19;;;;;;;17.83;11.47;;;22.60;99.90;;;;;;4803845;29;20286;-77
2023/09/18 18:25:54;;;;;;;20.43;11.80;;;22.60;99.90;;;;;;4804020;29;20200;-77
2023/09/18 18:28:29;;;;;;;15.43;10.77;;;22.60;99.90;;;;;;4803467;29;20202;-78
2023/09/18 18:30:57;;;;;;;15.63;11.13;;;22.50;99.90;;;;;;4803957;29;20199;-80
2023/09/18 18:33:26;;;;;;;18.67;11.43;;;22.50;99.90;;;;;;4804185;29;20687;-78
2023/09/18 18:36:06;;;;;;;16.30;11.27;;;22.50;99.90;;;;;;4803002;29;20652;-78
2023/09/18 18:38:35;;;;;;;18.17;11.20;;;22.50;99.90;;;;;;4802309;29;20207;-78
2023/09/18 18:41:03;;;;;;;17.07;11.43;;;22.50;99.90;;;;;;4803727;29;20286;-77
2023/09/18 18:43:40;;;;;;;17.13;12.00;;;22.70;99.90;;;;;;4803517;29;20196;-80
2023/09/18 18:46:11;;;;;;;20.03;12.23;;;22.40;99.90;;;;;;4804341;29;20659;-78
2023/09/18 18:48:39;;;;;;;15.57;11.60;;;22.30;99.90;;;;;;4802019;29;20208;-77
2023/09/18 18:51:11;;;;;;;15.50;10.80;;;22.30;99.90;;;;;;4803054;29;20231;-79
2023/09/18 18:53:41;;;;;;;16.07;11.13;;;22.30;99.90;;;;;;4804359;29;20231;-77
2023/09/18 18:56:14;;;;;;;14.77;10.47;;;22.30;99.90;;;;;;4802949;29;20235;-76
2023/09/18 18:58:44;;;;;;;14.93;10.47;;;22.20;99.90;;;;;;4803975;29;20203;-77
2023/09/18 19:01:13;;;;;;;14.10;10.37;;;22.20;99.90;;;;;;4802998;29;20207;-77
2023/09/18 19:03:43;;;;;;;15.23;10.03;;;22.20;99.90;;;;;;4804211;29;20239;-77
2023/09/18 19:06:15;;;;;;;15.83;10.00;;;22.10;99.90;;;;;;4807436;29;20235;-79
2023/09/18 19:08:44;;;;;;;14.30;9.60;;;22.10;99.90;;;;;;4806706;29;20207;-77
2023/09/18 19:11:13;;;;;;;13.77;9.63;;;22.10;99.90;;;;;;4806673;29;20207;-79
2023/09/18 19:13:47;;;;;;;14.40;9.90;;;22.00;99.90;;;;;;4805986;29;20219;-78
2023/09/18 19:16:20;;;;;;;17.93;10.23;;;22.00;99.90;;;;;;4806440;29;20265;-78
2023/09/18 19:18:48;;;;;;;13.03;9.07;;;22.10;99.90;;;;;;4806794;29;20202;-79
2023/09/18 19:21:15;;;;;;;13.73;9.33;;;22.00;99.90;;;;;;4806264;29;20251;-77
2023/09/18 19:23:46;;;;;;;16.07;9.50;;;22.10;99.90;;;;;;4805954;29;20550;-80
2023/09/18 19:26:22;;;;;;;15.27;9.63;;;22.00;99.90;;;;;;4805807;29;20223;-78
2023/09/18 19:28:53;;;;;;;12.47;8.97;;;21.80;99.90;;;;;;4807233;29;20255;-77
2023/09/18 19:31:24;;;;;;;15.60;9.20;;;21.90;99.90;;;;;;4804408;29;20203;-78
2023/09/18 19:34:00;;;;;;;11.80;8.63;;;21.80;99.90;;;;;;4805530;29;20272;-79
2023/09/18 19:36:38;;;;;;;11.47;8.73;;;21.90;99.90;;;;;;4806220;29;20299;-80
2023/09/18 19:39:08;;;;;;;15.17;9.33;;;21.80;99.90;;;;;;4806671;29;20651;-78
2023/09/18 19:41:38;;;;;;;12.40;9.03;;;21.80;99.90;;;;;;4806480;29;20570;-76
2023/09/18 19:44:08;;;;;;;13.33;9.40;;;21.70;99.90;;;;;;4806473;29;20923;-78
2023/09/18 19:46:38;;;;;;;14.60;9.13;;;21.70;99.90;;;;;;4806785;29;20199;-78
2023/09/18 19:49:07;;;;;;;13.73;8.80;;;21.70;99.90;;;;;;4789030;29;20327;-79
2023/09/18 19:51:42;;;;;;;14.07;8.77;;;21.70;99.90;;;;;;4805302;29;20222;-79
2023/09/18 19:54:14;;;;;;;15.20;9.43;;;21.70;99.90;;;;;;4805925;29;20230;-79
2023/09/18 19:56:46;;;;;;;15.20;8.70;;;21.60;99.90;;;;;;4804827;29;20200;-80
2023/09/18 19:59:38;;;;;;;11.97;8.93;;;21.50;99.90;;;;;;4805809;29;20196;-81
2023/09/18 20:02:15;;;;;;;13.70;9.27;;;21.50;99.90;;;;;;4805616;29;20231;-79
2023/09/18 20:04:43;;;;;;;12.40;8.73;;;21.50;99.90;;;;;;4805373;29;20557;-80
2023/09/18 20:07:16;;;;;;;14.93;8.80;;;21.40;99.90;;;;;;4805805;29;20216;-80
2023/09/18 20:10:01;;;;;;;13.67;9.07;;;21.40;99.90;;;;;;4805970;29;20290;-80
2023/09/18 20:12:30;;;;;;;11.47;8.77;;;21.30;99.90;;;;;;4805914;29;20184;-80
2023/09/18 20:14:59;;;;;;;21.33;10.03;;;21.40;99.90;;;;;;4805611;29;20561;-80
2023/09/18 20:17:28;;;;;;;14.23;9.33;;;21.30;99.90;;;;;;4805718;29;20196;-79
2023/09/18 20:19:55;;;;;;;12.43;9.00;;;21.30;99.90;;;;;;4805557;29;20204;-79
2023/09/18 20:22:30;;;;;;;14.40;9.43;;;21.20;99.90;;;;;;4806020;29;20288;-79
2023/09/18 20:25:01;;;;;;;12.07;8.90;;;21.20;99.90;;;;;;4806402;29;20602;-80
2023/09/18 20:27:29;;;;;;;12.20;8.50;;;21.20;99.90;;;;;;4805603;29;20208;-80
2023/09/18 20:30:00;;;;;;;13.23;8.83;;;21.20;99.90;;;;;;4805325;29;20196;-79
2023/09/18 20:32:33;;;;;;;12.17;8.43;;;21.10;99.90;;;;;;4806181;29;20208;-79
2023/09/18 20:35:01;;;;;;;12.30;8.73;;;21.10;99.90;;;;;;4805724;29;20736;-79
2023/09/18 20:37:29;;;;;;;14.17;9.10;;;21.10;99.90;;;;;;4803988;29;20235;-79
2023/09/18 20:39:58;;;;;;;15.53;9.40;;;21.10;99.90;;;;;;4806095;29;20543;-79
2023/09/18 20:42:29;;;;;;;13.13;9.00;;;21.00;99.90;;;;;;4806289;29;20200;-78
2023/09/18 20:44:59;;;;;;;14.37;9.03;;;21.00;99.90;;;;;;4805883;29;20230;-80
2023/09/18 20:47:32;;;;;;;12.03;8.80;;;21.00;99.90;;;;;;4804998;29;20721;-80
2023/09/18 20:50:05;;;;;;;11.83;8.73;;;20.90;99.90;;;;;;4789042;29;20643;-80
2023/09/18 20:52:35;;;;;;;12.13;8.53;;;20.90;99.90;;;;;;4805450;29;20456;-80
2023/09/18 20:55:04;;;;;;;12.13;8.80;;;20.90;99.90;;;;;;4805548;29;20260;-81
2023/09/18 20:57:32;;;;;;;15.83;9.80;;;20.80;99.90;;;;;;4804466;29;20719;-81
2023/09/18 21:00:01;;;;;;;14.00;8.73;;;20.70;99.90;;;;;;4805546;29;20260;-79
2023/09/18 21:02:32;;;;;;;14.17;8.90;;;20.70;99.90;;;;;;4805280;29;20188;-80
2023/09/18 21:05:00;;;;;;;21.07;9.80;;;20.70;99.90;;;;;;4805519;29;20272;-79
2023/09/18 21:07:33;;;;;;;14.50;8.33;;;20.70;99.90;;;;;;4805426;29;20209;-79
2023/09/18 21:10:04;;;;;;;15.10;9.20;;;20.60;99.90;;;;;;4804080;29;20203;-79
2023/09/18 21:12:33;;;;;;;21.17;9.73;;;20.60;99.90;;;;;;4803033;29;20428;-80
2023/09/18 21:15:02;;;;;;;13.17;8.83;;;20.60;99.90;;;;;;4805478;29;20214;-81
2023/09/18 21:17:33;;;;;;;12.07;8.90;;;20.60;99.90;;;;;;4805326;29;20564;-80
2023/09/18 21:20:04;;;;;;;12.97;8.67;;;20.50;99.90;;;;;;4804204;29;20609;-79
2023/09/18 21:22:33;;;;;;;14.17;8.90;;;20.50;99.90;;;;;;4805282;29;20203;-79
2023/09/18 21:25:02;;;;;;;12.03;8.73;;;20.40;99.90;;;;;;4804582;29;20203;-80
2023/09/18 21:27:32;;;;;;;11.93;8.63;;;20.40;99.90;;;;;;4804709;29;20195;-79
2023/09/18 21:30:04;;;;;;;15.93;9.33;;;20.50;99.90;;;;;;4803608;29;20260;-80
2023/09/18 21:32:38;;;;;;;13.80;9.60;;;20.40;99.90;;;;;;4804114;29;20198;-80
2023/09/18 21:35:06;;;;;;;13.33;9.23;;;20.40;99.90;;;;;;4804858;29;20491;-80
2023/09/18 21:37:36;;;;;;;14.00;8.90;;;20.40;99.90;;;;;;4804711;29;20199;-80
2023/09/18 21:40:05;;;;;;;16.20;9.53;;;20.20;99.90;;;;;;4803184;29;20192;-80
2023/09/18 21:42:34;;;;;;;14.17;9.03;;;20.20;99.90;;;;;;4804020;29;20200;-81
2023/09/18 21:45:17;;;;;;;13.67;9.37;;;20.20;99.90;;;;;;4803543;29;20236;-80
2023/09/18 21:47:50;;;;;;;13.57;9.27;;;20.20;99.90;;;;;;4802716;29;20200;-79
2023/09/18 21:50:19;;;;;;;15.63;9.87;;;20.20;99.90;;;;;;4804647;29;20202;-81
2023/09/18 21:52:53;;;;;;;18.27;9.80;;;20.20;99.90;;;;;;4804889;29;20195;-78
2023/09/18 21:55:22;;;;;;;14.13;9.17;;;20.10;99.90;;;;;;4805135;29;20203;-79
2023/09/18 21:57:50;;;;;;;13.53;9.03;;;20.10;99.90;;;;;;4803424;29;20358;-79
2023/09/18 22:00:28;;;;;;;14.53;9.70;;;20.00;99.90;;;;;;4804543;29;20195;-79
2023/09/18 22:02:56;;;;;;;12.57;8.77;;;20.00;99.90;;;;;;4804374;29;20210;-80
2023/09/18 22:05:24;;;;;;;13.97;9.57;;;20.00;99.90;;;;;;4803137;29;20667;-78
2023/09/18 22:07:56;;;;;;;17.57;10.50;;;20.00;99.90;;;;;;4804943;29;20192;-78
2023/09/18 22:10:26;;;;;;;13.87;9.53;;;20.00;99.90;;;;;;4804470;29;20219;-78
2023/09/18 22:12:54;;;;;;;13.00;9.43;;;19.90;99.90;;;;;;4788295;29;20566;-78
2023/09/18 22:15:23;;;;;;;16.97;10.40;;;19.90;99.90;;;;;;4802994;29;20260;-79
2023/09/18 22:17:52;;;;;;;14.40;9.83;;;19.80;99.90;;;;;;4804388;29;20276;-81
2023/09/18 22:20:24;;;;;;;15.10;9.07;;;19.80;99.90;;;;;;4804811;29;20207;-78
2023/09/18 22:22:52;;;;;;;14.80;9.63;;;19.80;99.90;;;;;;4804467;29;20726;-78
2023/09/18 22:25:20;;;;;;;17.23;9.83;;;19.80;99.90;;;;;;4804431;29;20685;-78
2023/09/18 22:27:48;;;;;;;16.33;9.30;;;19.70;99.90;;;;;;4802847;29;20203;-79
2023/09/18 22:30:18;;;;;;;13.53;9.10;;;19.70;99.90;;;;;;4804809;29;20207;-79
2023/09/18 22:32:47;;;;;;;13.97;9.70;;;19.60;99.90;;;;;;4804181;29;20204;-79
2023/09/18 22:35:16;;;;;;;16.33;9.57;;;19.60;99.90;;;;;;4802382;29;20210;-78
2023/09/18 22:37:44;;;;;;;13.67;9.57;;;19.60;99.90;;;;;;4803629;29;20200;-80
2023/09/18 22:40:16;;;;;;;24.13;10.33;;;19.60;99.90;;;;;;4808104;29;20204;-80
2023/09/18 22:43:21;;;;;;;15.40;9.73;;;19.50;99.90;;;;;;4807875;29;20295;-79
2023/09/18 22:46:26;;;;;;;13.47;10.00;;;19.50;99.90;;;;;;4789749;30;20226;-78
2023/09/18 22:49:32;;;;;;;15.23;10.03;;;19.50;99.90;;;;;;4788268;30;20222;-79